createdAt,value
2022-12-25T00:01:32.288Z,9.57
2022-12-25T00:03:59.528Z,10.90
2022-12-25T00:06:26.625Z,11.30
2022-12-25T00:08:53.763Z,10.73
2022-12-25T00:11:21.367Z,10.23
2022-12-25T00:13:49.194Z,9.73
2022-12-25T00:16:24.198Z,8.75
2022-12-25T00:18:52.110Z,8.65
2022-12-25T00:21:21.273Z,9.85
2022-12-25T00:23:48.446Z,8.65
2022-12-25T00:26:17.760Z,9.05
2022-12-25T00:28:44.894Z,10.98
2022-12-25T00:31:17.753Z,6.90
2022-12-25T00:33:46.712Z,7.85
2022-12-25T00:36:16.259Z,7.95
2022-12-25T00:38:43.882Z,8.95
2022-12-25T00:41:17.569Z,9.50
2022-12-25T00:43:44.791Z,8.20
2022-12-25T00:46:13.319Z,7.10
2022-12-25T00:48:41.872Z,7.40
2022-12-25T00:51:11.749Z,7.88
2022-12-25T00:53:38.833Z,6.13
2022-12-25T00:56:08.310Z,7.45
2022-12-25T00:58:35.631Z,7.45
2022-12-25T01:01:04.133Z,7.22
2022-12-25T01:03:31.546Z,7.15
2022-12-25T01:06:02.360Z,7.28
2022-12-25T01:08:32.488Z,6.28
2022-12-25T01:11:02.940Z,6.93
2022-12-25T01:13:31.312Z,6.97
2022-12-25T01:15:58.655Z,7.40
2022-12-25T01:18:25.997Z,7.60
2022-12-25T01:20:53.097Z,9.02
2022-12-25T01:23:20.060Z,8.15
2022-12-25T01:25:47.085Z,6.45
2022-12-25T01:28:14.045Z,6.43
2022-12-25T01:30:48.008Z,6.53
2022-12-25T01:33:14.942Z,7.03
2022-12-25T01:35:42.605Z,7.15
2022-12-25T01:38:09.588Z,7.18
2022-12-25T01:40:36.484Z,6.43
2022-12-25T01:43:06.470Z,7.60
2022-12-25T01:45:38.074Z,7.80
2022-12-25T01:48:19.797Z,7.45
2022-12-25T01:50:54.270Z,7.25
2022-12-25T01:53:21.555Z,7.95
2022-12-25T01:55:55.370Z,7.93
2022-12-25T01:58:22.391Z,7.22
2022-12-25T02:00:51.895Z,7.68
2022-12-25T02:03:20.736Z,5.93
2022-12-25T02:05:48.295Z,6.70
2022-12-25T02:08:18.847Z,8.10
2022-12-25T02:10:46.405Z,7.55
2022-12-25T02:13:17.742Z,7.22
2022-12-25T02:16:16.208Z,7.50
2022-12-25T02:18:52.524Z,7.90
2022-12-25T02:21:56.829Z,6.45
2022-12-25T02:24:52.332Z,6.90
2022-12-25T02:27:46.262Z,7.85
2022-12-25T02:30:13.750Z,7.82
2022-12-25T02:32:46.784Z,10.30
2022-12-25T02:35:31.210Z,8.63
2022-12-25T02:38:10.381Z,9.93
2022-12-25T02:40:51.282Z,7.88
2022-12-25T02:43:54.298Z,9.13
2022-12-25T02:46:43.069Z,9.07
2022-12-25T02:49:35.019Z,7.75
2022-12-25T02:52:33.386Z,7.55
2022-12-25T02:55:28.763Z,9.38
2022-12-25T02:58:19.416Z,7.25
2022-12-25T03:01:13.821Z,7.80
2022-12-25T03:04:00.360Z,7.65
2022-12-25T03:06:43.816Z,8.52
2022-12-25T03:09:41.528Z,6.25
2022-12-25T03:12:42.352Z,10.82
2022-12-25T03:15:30.040Z,8.82
2022-12-25T03:18:01.861Z,9.52
2022-12-25T03:20:48.794Z,7.72
2022-12-25T03:23:39.659Z,9.63
2022-12-25T03:26:26.863Z,11.80
2022-12-25T03:28:53.826Z,9.25
2022-12-25T03:31:47.214Z,7.47
2022-12-25T03:35:11.674Z,11.95
2022-12-25T03:38:22.252Z,10.32
2022-12-25T03:41:32.048Z,9.27
2022-12-25T03:44:27.980Z,8.32
2022-12-25T03:47:39.354Z,10.57
2022-12-25T03:50:52.876Z,10.60
2022-12-25T03:54:00.267Z,10.25
2022-12-25T03:56:48.576Z,9.23
2022-12-25T03:59:39.378Z,11.27
2022-12-25T04:02:26.122Z,9.88
2022-12-25T04:05:11.942Z,11.05
2022-12-25T04:07:59.021Z,9.75
2022-12-25T04:10:44.703Z,9.63
2022-12-25T04:13:30.445Z,9.52
2022-12-25T04:16:16.218Z,9.40
2022-12-25T04:19:01.986Z,7.95
2022-12-25T04:21:48.786Z,6.97
2022-12-25T04:24:34.304Z,7.28
2022-12-25T04:27:19.580Z,7.10
2022-12-25T04:30:04.913Z,9.00
2022-12-25T04:32:50.337Z,7.63
2022-12-25T04:35:36.051Z,7.07
2022-12-25T04:38:03.039Z,7.65
2022-12-25T04:40:30.036Z,9.15
2022-12-25T04:42:57.068Z,6.68
2022-12-25T04:45:24.180Z,6.43
2022-12-25T04:47:51.251Z,6.05
2022-12-25T04:50:18.331Z,6.65
2022-12-25T04:52:46.020Z,7.68
2022-12-25T04:55:13.117Z,7.47
2022-12-25T04:57:40.492Z,6.85
2022-12-25T05:00:08.524Z,7.60
2022-12-25T05:02:35.934Z,8.95
2022-12-25T05:05:03.222Z,5.90
2022-12-25T05:07:30.220Z,6.65
2022-12-25T05:09:57.425Z,7.13
2022-12-25T05:12:24.384Z,7.40
2022-12-25T05:14:51.311Z,6.28
2022-12-25T05:17:18.321Z,6.95
2022-12-25T05:19:45.206Z,8.88
2022-12-25T05:22:12.148Z,6.05
2022-12-25T05:24:39.184Z,7.40
2022-12-25T05:27:06.159Z,6.60
2022-12-25T05:29:33.093Z,7.65
2022-12-25T05:32:00.046Z,6.78
2022-12-25T05:34:26.958Z,7.57
2022-12-25T05:36:53.967Z,6.78
2022-12-25T05:39:20.965Z,6.82
2022-12-25T05:41:48.039Z,6.70
2022-12-25T05:44:14.910Z,6.40
2022-12-25T05:46:42.544Z,6.95
2022-12-25T05:49:09.640Z,6.65
2022-12-25T05:51:36.669Z,6.50
2022-12-25T05:54:03.925Z,6.40
2022-12-25T05:56:30.871Z,6.63
2022-12-25T05:58:57.839Z,6.47
2022-12-25T06:01:28.652Z,7.05
2022-12-25T06:03:57.272Z,7.60
2022-12-25T06:06:24.335Z,6.28
2022-12-25T06:08:55.272Z,6.93
2022-12-25T06:11:22.850Z,7.00
2022-12-25T06:13:51.849Z,8.25
2022-12-25T06:20:06.917Z,8.02
2022-12-25T06:26:04.480Z,8.98
2022-12-25T06:28:31.379Z,10.50
2022-12-25T06:30:58.444Z,9.50
2022-12-25T06:33:25.507Z,10.68
2022-12-25T06:35:52.421Z,10.65
2022-12-25T06:38:19.386Z,10.25
2022-12-25T06:40:46.300Z,9.25
2022-12-25T06:43:13.246Z,9.68
2022-12-25T06:45:40.236Z,10.23
2022-12-25T06:48:07.248Z,7.82
2022-12-25T06:50:34.182Z,8.82
2022-12-25T06:53:01.203Z,8.38
2022-12-25T06:55:28.201Z,9.57
2022-12-25T06:57:55.423Z,8.18
2022-12-25T07:00:22.467Z,8.55
2022-12-25T07:02:50.363Z,8.13
2022-12-25T07:05:17.572Z,9.52
2022-12-25T07:07:44.532Z,10.65
2022-12-25T07:10:11.816Z,9.23
2022-12-25T07:12:38.866Z,9.00
2022-12-25T07:15:06.595Z,8.75
2022-12-25T07:17:34.724Z,8.02
2022-12-25T07:20:02.269Z,8.13
2022-12-25T07:22:30.179Z,8.85
2022-12-25T07:24:57.205Z,8.85
2022-12-25T07:27:24.569Z,6.85
2022-12-25T07:29:51.505Z,7.40
2022-12-25T07:32:18.524Z,7.53
2022-12-25T07:34:45.533Z,6.90
2022-12-25T07:37:13.094Z,8.80
2022-12-25T07:39:40.772Z,7.70
2022-12-25T07:42:08.053Z,7.00
2022-12-25T07:44:34.982Z,7.63
2022-12-25T07:47:01.924Z,7.63
2022-12-25T07:49:28.909Z,7.85
2022-12-25T07:51:55.918Z,7.00
2022-12-25T07:54:23.151Z,6.75
2022-12-25T07:56:53.966Z,7.38
2022-12-25T07:59:21.101Z,7.88
2022-12-25T08:01:50.380Z,8.02
2022-12-25T08:04:19.384Z,7.78
2022-12-25T08:06:46.502Z,7.47
2022-12-25T08:09:13.731Z,7.22
2022-12-25T08:11:46.752Z,6.38
2022-12-25T08:14:14.946Z,7.47
2022-12-25T08:16:42.364Z,5.70
2022-12-25T08:19:11.854Z,5.90
2022-12-25T08:24:33.639Z,6.70
2022-12-25T08:27:00.664Z,5.55
2022-12-25T08:29:29.044Z,6.00
2022-12-25T08:31:56.257Z,5.72
2022-12-25T08:34:23.348Z,5.95
2022-12-25T08:36:50.328Z,6.32
2022-12-25T08:39:17.418Z,6.03
2022-12-25T08:41:44.327Z,6.32
2022-12-25T08:44:12.920Z,5.90
2022-12-25T08:46:40.588Z,5.35
2022-12-25T08:49:07.718Z,6.07
2022-12-25T08:51:34.760Z,6.32
2022-12-25T08:54:01.879Z,5.60
2022-12-25T08:56:29.140Z,6.07
2022-12-25T08:58:56.110Z,5.28
2022-12-25T09:01:23.255Z,4.75
2022-12-25T09:03:50.510Z,5.28
2022-12-25T09:06:17.571Z,5.90
2022-12-25T09:08:49.056Z,5.13
2022-12-25T09:11:19.164Z,6.03
2022-12-25T09:13:46.884Z,5.03
2022-12-25T09:16:19.017Z,6.47
2022-12-25T09:18:46.264Z,5.60
2022-12-25T09:21:15.836Z,6.43
2022-12-25T09:23:43.088Z,5.95
2022-12-25T09:26:14.874Z,4.97
2022-12-25T09:28:46.802Z,7.10
2022-12-25T09:31:18.275Z,5.90
2022-12-25T09:33:45.454Z,5.78
2022-12-25T09:36:12.468Z,5.75
2022-12-25T09:38:39.748Z,4.88
2022-12-25T09:41:39.624Z,4.88
2022-12-25T09:44:17.053Z,4.40
2022-12-25T09:47:06.247Z,5.85
2022-12-25T09:50:00.562Z,5.00
2022-12-25T09:52:44.150Z,5.47
2022-12-25T09:55:24.400Z,5.85
2022-12-25T09:57:57.660Z,5.30
2022-12-25T10:00:30.932Z,4.95
2022-12-25T10:03:23.862Z,5.07
2022-12-25T10:06:10.946Z,5.15
2022-12-25T10:09:13.548Z,5.30
2022-12-25T10:12:27.425Z,4.97
2022-12-25T10:15:08.835Z,5.85
2022-12-25T10:17:50.808Z,4.75
2022-12-25T10:20:53.576Z,4.75
2022-12-25T10:23:44.428Z,5.05
2022-12-25T10:26:18.541Z,4.97
2022-12-25T10:28:51.575Z,4.68
2022-12-25T10:31:23.108Z,5.00
2022-12-25T10:33:53.241Z,5.32
2022-12-25T10:36:26.847Z,5.78
2022-12-25T10:38:55.694Z,6.05
2022-12-25T10:42:13.725Z,6.43
2022-12-25T10:44:40.695Z,4.70
2022-12-25T10:47:07.786Z,5.70
2022-12-25T10:49:39.606Z,5.38
2022-12-25T10:52:25.852Z,6.10
2022-12-25T11:00:27.822Z,5.63
2022-12-25T11:02:55.382Z,5.95
2022-12-25T11:05:34.749Z,6.72
2022-12-25T11:08:03.809Z,6.00
2022-12-25T11:10:37.924Z,5.82
2022-12-25T11:13:17.913Z,6.43
2022-12-25T11:16:15.774Z,7.65
2022-12-25T11:18:49.421Z,5.95
2022-12-25T11:21:37.940Z,7.20
2022-12-25T11:24:16.300Z,6.07
2022-12-25T11:26:57.132Z,5.22
2022-12-25T11:29:49.663Z,5.47
2022-12-25T11:32:34.649Z,5.35
2022-12-25T11:35:02.956Z,6.18
2022-12-25T11:37:48.791Z,6.15
2022-12-25T11:40:24.359Z,6.70
2022-12-25T11:42:57.568Z,6.60
2022-12-25T11:45:33.397Z,7.55
2022-12-25T11:48:11.890Z,7.35
2022-12-25T11:50:48.169Z,7.05
2022-12-25T11:53:41.622Z,7.68
2022-12-25T11:56:36.260Z,6.57
2022-12-25T11:59:18.362Z,6.70
2022-12-25T12:01:52.412Z,7.65
2022-12-25T12:04:30.193Z,6.85
2022-12-25T12:07:13.798Z,7.10
2022-12-25T12:10:16.570Z,7.43
2022-12-25T12:13:21.343Z,6.55
2022-12-25T12:15:49.993Z,9.57
2022-12-25T12:18:27.089Z,7.65
2022-12-25T12:21:25.196Z,7.20
2022-12-25T12:24:14.036Z,8.25
2022-12-25T12:26:43.871Z,7.50
2022-12-25T12:29:49.642Z,8.55
2022-12-25T12:32:38.412Z,8.40
2022-12-25T12:35:34.737Z,8.70
2022-12-25T12:38:12.928Z,8.60
2022-12-25T12:40:44.685Z,9.88
2022-12-25T12:43:31.747Z,8.63
2022-12-25T12:46:31.097Z,8.65
2022-12-25T12:49:30.521Z,10.82
2022-12-25T12:52:24.789Z,10.98
2022-12-25T12:55:15.188Z,9.80
2022-12-25T12:57:42.846Z,10.07
2022-12-25T13:00:18.881Z,10.88
2022-12-25T13:02:57.723Z,10.52
2022-12-25T13:05:50.593Z,10.75
2022-12-25T13:08:51.659Z,11.30
2022-12-25T13:11:25.297Z,11.10
2022-12-25T13:13:55.718Z,10.68
2022-12-25T13:16:34.208Z,10.07
2022-12-25T13:19:09.224Z,10.57
2022-12-25T13:21:36.220Z,11.25
2022-12-25T13:24:10.667Z,11.93
2022-12-25T13:26:39.515Z,12.38
2022-12-25T13:29:11.254Z,12.80
2022-12-25T13:31:41.325Z,11.40
2022-12-25T13:34:36.505Z,10.68
2022-12-25T13:37:15.119Z,10.18
2022-12-25T13:40:01.292Z,9.82
2022-12-25T13:42:36.429Z,11.48
2022-12-25T13:45:13.639Z,10.93
2022-12-25T13:47:43.216Z,11.70
2022-12-25T13:50:28.760Z,12.13
2022-12-25T13:52:58.779Z,11.27
2022-12-25T13:55:28.559Z,11.77
2022-12-25T13:58:01.624Z,14.23
2022-12-25T14:00:45.580Z,12.55
2022-12-25T14:03:25.195Z,11.38
2022-12-25T14:06:27.639Z,12.98
2022-12-25T14:08:56.953Z,11.45
2022-12-25T14:11:27.362Z,11.00
2022-12-25T14:14:01.717Z,13.23
2022-12-25T14:16:28.963Z,12.13
2022-12-25T14:19:01.859Z,11.48
2022-12-25T14:21:35.299Z,10.05
2022-12-25T14:24:02.589Z,10.32
2022-12-25T14:26:33.862Z,10.13
2022-12-25T14:29:17.208Z,11.35
2022-12-25T14:31:47.425Z,11.98
2022-12-25T14:34:25.566Z,10.60
2022-12-25T14:36:53.693Z,10.82
2022-12-25T14:39:36.868Z,11.73
2022-12-25T14:42:22.911Z,11.02
2022-12-25T14:45:33.668Z,11.43
2022-12-25T14:48:22.881Z,13.40
2022-12-25T14:51:09.310Z,12.70
2022-12-25T14:53:49.308Z,11.48
2022-12-25T14:56:20.253Z,11.20
2022-12-25T14:58:53.752Z,10.80
2022-12-25T15:01:35.280Z,10.18
2022-12-25T15:04:17.974Z,11.60
2022-12-25T15:07:07.496Z,11.07
2022-12-25T15:09:36.140Z,10.93
2022-12-25T15:12:04.438Z,12.38
2022-12-25T15:14:31.751Z,15.38
2022-12-25T15:17:01.060Z,12.50
2022-12-25T15:19:37.626Z,11.90
2022-12-25T15:22:06.225Z,14.70
2022-12-25T15:24:33.280Z,9.43
2022-12-25T15:27:00.850Z,12.50
2022-12-25T15:32:22.101Z,11.38
2022-12-25T15:34:50.138Z,18.98
2022-12-25T15:37:18.893Z,14.85
2022-12-25T15:39:46.402Z,35.33
2022-12-25T15:42:17.729Z,29.23
2022-12-25T15:44:45.532Z,16.10
2022-12-25T15:47:14.494Z,14.55
2022-12-25T15:49:42.163Z,13.75
2022-12-25T15:52:17.720Z,14.73
2022-12-25T15:54:44.646Z,17.85
2022-12-25T15:57:20.674Z,16.67
2022-12-25T15:59:48.134Z,21.20
2022-12-25T16:02:19.179Z,16.27
2022-12-25T16:04:46.778Z,14.07
2022-12-25T16:07:17.722Z,11.80
2022-12-25T16:09:45.111Z,12.32
2022-12-25T16:12:12.792Z,11.73
2022-12-25T16:14:39.778Z,10.82
2022-12-25T16:17:06.676Z,9.60
2022-12-25T16:19:33.793Z,10.85
2022-12-25T16:22:01.290Z,11.13
2022-12-25T16:24:29.470Z,12.43
2022-12-25T16:26:56.432Z,11.85
2022-12-25T16:29:23.318Z,14.13
2022-12-25T16:31:50.278Z,12.50
2022-12-25T16:34:17.318Z,13.45
2022-12-25T16:36:44.405Z,13.55
2022-12-25T16:39:11.384Z,14.13
2022-12-25T16:41:38.388Z,12.32
2022-12-25T16:44:09.656Z,14.75
2022-12-25T16:46:39.930Z,44.63
2022-12-25T16:49:07.110Z,41.72
2022-12-25T16:51:34.224Z,41.13
2022-12-25T16:54:01.436Z,18.20
2022-12-25T16:56:29.950Z,18.17
2022-12-25T16:58:58.704Z,16.80
2022-12-25T17:01:26.240Z,13.95
2022-12-25T17:03:53.565Z,14.82
2022-12-25T17:06:26.868Z,23.52
2022-12-25T17:08:58.895Z,16.35
2022-12-25T17:11:30.368Z,12.07
2022-12-25T17:14:02.821Z,18.33
2022-12-25T17:16:36.429Z,14.52
2022-12-25T17:19:19.176Z,21.25
2022-12-25T17:21:46.656Z,15.55
2022-12-25T17:24:14.554Z,45.00
2022-12-25T17:26:41.762Z,35.25
2022-12-25T17:29:10.035Z,26.75
2022-12-25T17:31:38.103Z,13.93
2022-12-25T17:34:06.760Z,27.50
2022-12-25T17:36:34.363Z,19.55
2022-12-25T17:39:03.608Z,24.60
2022-12-25T17:41:30.899Z,15.15
2022-12-25T17:43:58.119Z,24.35
2022-12-25T17:46:29.366Z,15.45
2022-12-25T17:48:59.516Z,15.02
2022-12-25T17:51:28.560Z,12.30
2022-12-25T17:53:59.182Z,7.85
2022-12-25T17:56:26.709Z,8.32
2022-12-25T17:58:57.399Z,12.68
2022-12-25T18:01:26.541Z,14.50
2022-12-25T18:03:54.973Z,22.38
2022-12-25T18:06:24.507Z,14.50
2022-12-25T18:08:51.790Z,16.30
2022-12-25T18:11:24.620Z,14.00
2022-12-25T18:13:53.446Z,23.48
2022-12-25T18:16:23.667Z,7.68
2022-12-25T18:18:52.520Z,6.85
2022-12-25T18:21:22.233Z,9.05
2022-12-25T18:23:50.415Z,8.73
2022-12-25T18:26:19.342Z,12.50
2022-12-25T18:28:47.916Z,12.38
2022-12-25T18:31:21.200Z,14.98
2022-12-25T18:33:49.158Z,18.27
2022-12-25T18:36:22.446Z,11.52
2022-12-25T18:38:51.045Z,8.30
2022-12-25T18:41:18.288Z,10.63
2022-12-25T18:43:52.748Z,9.52
2022-12-25T18:46:24.562Z,7.70
2022-12-25T18:48:53.102Z,7.80
2022-12-25T18:51:20.266Z,6.68
2022-12-25T18:53:47.291Z,6.55
2022-12-25T18:56:17.405Z,8.25
2022-12-25T18:58:45.852Z,14.45
2022-12-25T19:01:22.733Z,14.02
2022-12-25T19:03:51.217Z,13.55
2022-12-25T19:06:21.644Z,17.38
2022-12-25T19:08:48.869Z,18.00
2022-12-25T19:11:17.110Z,17.58
2022-12-25T19:13:45.186Z,18.80
2022-12-25T19:16:12.770Z,10.63
2022-12-25T19:18:40.174Z,12.73
2022-12-25T19:21:09.289Z,12.35
2022-12-25T19:23:37.914Z,15.95
2022-12-25T19:26:07.452Z,14.10
2022-12-25T19:28:35.687Z,10.63
2022-12-25T19:31:07.545Z,11.93
2022-12-25T19:33:36.766Z,11.85
2022-12-25T19:36:11.205Z,11.70
2022-12-25T19:38:38.667Z,15.05
2022-12-25T19:41:12.703Z,16.90
2022-12-25T19:43:41.673Z,17.00
2022-12-25T19:46:15.848Z,14.93
2022-12-25T19:48:43.287Z,14.43
2022-12-25T19:51:29.916Z,13.77
2022-12-25T19:53:57.300Z,12.35
2022-12-25T19:56:28.535Z,13.13
2022-12-25T19:58:56.332Z,12.98
2022-12-25T20:01:27.781Z,10.70
2022-12-25T20:03:55.392Z,11.02
2022-12-25T20:06:32.241Z,10.98
2022-12-25T20:09:13.531Z,9.35
2022-12-25T20:11:40.899Z,9.57
2022-12-25T20:14:11.475Z,8.52
2022-12-25T20:16:40.217Z,10.90
2022-12-25T20:19:08.214Z,10.25
2022-12-25T20:21:35.197Z,7.10
2022-12-25T20:24:03.040Z,7.82
2022-12-25T20:26:32.120Z,7.43
2022-12-25T20:28:59.701Z,8.60
2022-12-25T20:31:32.944Z,10.32
2022-12-25T20:34:05.507Z,10.57
2022-12-25T20:36:37.364Z,9.45
2022-12-25T20:39:09.829Z,13.43
2022-12-25T20:41:38.263Z,10.90
2022-12-25T20:44:09.457Z,12.02
2022-12-25T20:46:37.475Z,11.38
2022-12-25T20:49:06.510Z,9.00
2022-12-25T20:51:33.802Z,8.45
2022-12-25T20:54:01.177Z,9.48
2022-12-25T20:56:29.018Z,12.15
2022-12-25T20:58:58.533Z,11.63
2022-12-25T21:01:26.955Z,11.50
2022-12-25T21:03:54.607Z,12.63
2022-12-25T21:06:22.498Z,12.25
2022-12-25T21:08:49.538Z,19.20
2022-12-25T21:11:17.679Z,15.80
2022-12-25T21:13:46.203Z,11.57
2022-12-25T21:16:17.356Z,10.77
2022-12-25T21:18:44.610Z,9.95
2022-12-25T21:21:12.299Z,5.78
2022-12-25T21:23:40.560Z,5.53
2022-12-25T21:26:20.300Z,7.90
2022-12-25T21:28:49.763Z,6.28
2022-12-25T21:31:17.931Z,7.00
2022-12-25T21:33:55.272Z,7.32
2022-12-25T21:36:34.336Z,6.85
2022-12-25T21:39:07.484Z,6.75
2022-12-25T21:41:37.021Z,7.05
2022-12-25T21:44:04.608Z,6.80
2022-12-25T21:46:32.110Z,7.00
2022-12-25T21:49:00.121Z,7.07
2022-12-25T21:51:50.157Z,8.13
2022-12-25T21:54:22.079Z,8.10
2022-12-25T21:56:49.899Z,7.95
2022-12-25T21:59:20.758Z,8.13
2022-12-25T22:01:49.066Z,8.57
2022-12-25T22:04:18.408Z,8.50
2022-12-25T22:07:04.877Z,8.75
2022-12-25T22:09:32.279Z,9.10
2022-12-25T22:12:18.955Z,9.05
2022-12-25T22:14:55.414Z,9.13
2022-12-25T22:17:47.406Z,9.90
2022-12-25T22:20:20.228Z,9.20
2022-12-25T22:22:47.488Z,10.30
2022-12-25T22:25:15.634Z,9.68
2022-12-25T22:27:44.593Z,9.00
2022-12-25T22:30:21.220Z,9.25
2022-12-25T22:32:48.660Z,8.93
2022-12-25T22:35:16.903Z,9.73
2022-12-25T22:37:44.957Z,9.32
2022-12-25T22:40:15.897Z,8.85
2022-12-25T22:42:43.011Z,9.02
2022-12-25T22:45:11.595Z,10.10
2022-12-25T22:47:41.144Z,10.00
2022-12-25T22:50:09.241Z,8.57
2022-12-25T22:52:37.997Z,8.52
2022-12-25T22:55:07.897Z,8.43
2022-12-25T22:57:35.688Z,8.85
2022-12-25T23:00:04.767Z,8.63
2022-12-25T23:02:32.220Z,8.10
2022-12-25T23:04:59.271Z,7.65
2022-12-25T23:07:26.152Z,7.90
2022-12-25T23:09:53.020Z,8.07
2022-12-25T23:12:38.590Z,7.10
2022-12-25T23:15:06.492Z,7.75
2022-12-25T23:17:51.869Z,7.85
2022-12-25T23:20:37.670Z,6.60
2022-12-25T23:23:23.118Z,7.00
2022-12-25T23:26:08.360Z,7.68
2022-12-25T23:28:57.280Z,7.90
2022-12-25T23:31:37.119Z,7.72
2022-12-25T23:34:06.470Z,9.20
2022-12-25T23:36:34.142Z,9.18
2022-12-25T23:39:07.071Z,9.10
2022-12-25T23:41:36.014Z,8.00
2022-12-25T23:44:03.025Z,8.05
2022-12-25T23:46:30.250Z,8.85
2022-12-25T23:48:57.269Z,8.57
2022-12-25T23:51:24.213Z,8.20
2022-12-25T23:53:51.276Z,8.82
2022-12-25T23:56:18.299Z,8.55
2022-12-25T23:58:51.935Z,8.25
